createdAt,value
2019-03-28T00:01:57.601Z,7.90
2019-03-28T00:04:24.240Z,7.60
2019-03-28T00:06:50.701Z,7.93
2019-03-28T00:09:17.209Z,7.90
2019-03-28T00:11:43.745Z,8.57
2019-03-28T00:14:10.180Z,8.33
2019-03-28T00:16:36.607Z,8.60
2019-03-28T00:19:03.143Z,8.53
2019-03-28T00:21:29.681Z,7.93
2019-03-28T00:23:58.055Z,8.93
2019-03-28T00:26:30.232Z,9.10
2019-03-28T00:28:52.866Z,8.77
2019-03-28T00:31:19.402Z,9.90
2019-03-28T00:33:47.167Z,8.60
2019-03-28T00:36:13.700Z,7.90
2019-03-28T00:38:43.000Z,9.37
2019-03-28T00:41:09.535Z,9.47
2019-03-28T00:43:36.070Z,9.20
2019-03-28T00:46:02.709Z,9.17
2019-03-28T00:48:29.243Z,9.43
2019-03-28T00:50:55.889Z,8.53
2019-03-28T00:53:22.418Z,9.63
2019-03-28T00:55:48.951Z,10.23
2019-03-28T00:58:15.383Z,9.53
2019-03-28T01:00:41.816Z,8.63
2019-03-28T01:03:08.249Z,9.47
2019-03-28T01:05:34.709Z,10.07
2019-03-28T01:08:01.216Z,9.57
2019-03-28T01:10:27.649Z,9.70
2019-03-28T01:12:53.981Z,9.67
2019-03-28T01:15:20.340Z,9.90
2019-03-28T01:17:46.745Z,9.93
2019-03-28T01:20:13.792Z,9.60
2019-03-28T01:22:40.324Z,10.80
2019-03-28T01:25:07.270Z,9.97
2019-03-28T01:27:33.707Z,10.70
2019-03-28T01:30:00.334Z,10.40
2019-03-28T01:32:26.875Z,11.83
2019-03-28T01:34:53.410Z,11.37
2019-03-28T01:37:19.844Z,11.63
2019-03-28T01:39:46.276Z,12.10
2019-03-28T01:42:13.324Z,11.53
2019-03-28T01:44:39.860Z,10.77
2019-03-28T01:47:06.394Z,12.20
2019-03-28T01:49:32.825Z,10.67
2019-03-28T01:51:59.361Z,10.73
2019-03-28T01:54:26.000Z,11.23
2019-03-28T01:56:52.739Z,11.30
2019-03-28T01:59:19.274Z,12.03
2019-03-28T02:01:45.809Z,12.03
2019-03-28T02:04:12.556Z,11.60
2019-03-28T02:06:38.879Z,11.00
2019-03-28T02:09:06.116Z,11.80
2019-03-28T02:11:32.768Z,11.90
2019-03-28T02:13:59.219Z,12.83
2019-03-28T02:16:25.636Z,12.53
2019-03-28T02:18:52.067Z,12.10
2019-03-28T02:21:18.602Z,11.87
2019-03-28T02:23:45.137Z,11.67
2019-03-28T02:26:11.673Z,13.07
2019-03-28T02:28:38.127Z,13.00
2019-03-28T02:31:04.743Z,13.57
2019-03-28T02:33:31.380Z,12.70
2019-03-28T02:35:57.916Z,13.83
2019-03-28T02:38:24.554Z,12.30
2019-03-28T02:40:51.004Z,13.27
2019-03-28T02:43:17.521Z,13.27
2019-03-28T02:45:44.001Z,13.00
2019-03-28T02:48:10.399Z,13.27
2019-03-28T02:50:37.728Z,14.20
2019-03-28T02:53:04.482Z,13.50
2019-03-28T02:55:31.021Z,13.37
2019-03-28T02:57:57.554Z,13.20
2019-03-28T03:00:24.089Z,13.17
2019-03-28T03:02:50.623Z,13.47
2019-03-28T03:05:17.182Z,12.73
2019-03-28T03:07:43.692Z,13.80
2019-03-28T03:10:10.534Z,12.87
2019-03-28T03:12:37.070Z,14.30
2019-03-28T03:15:06.677Z,12.23
2019-03-28T03:17:33.032Z,13.73
2019-03-28T03:19:59.541Z,12.37
2019-03-28T03:22:26.078Z,13.57
2019-03-28T03:24:52.510Z,12.57
2019-03-28T03:27:18.943Z,13.80
2019-03-28T03:29:45.394Z,14.23
2019-03-28T03:32:11.914Z,13.10
2019-03-28T03:34:38.449Z,13.20
2019-03-28T03:37:04.984Z,13.73
2019-03-28T03:39:31.519Z,14.17
2019-03-28T03:41:58.152Z,12.83
2019-03-28T03:44:24.689Z,13.67
2019-03-28T03:46:51.530Z,13.93
2019-03-28T03:49:18.067Z,13.53
2019-03-28T03:51:46.552Z,13.97
2019-03-28T03:54:12.774Z,15.33
2019-03-28T03:56:39.309Z,13.70
2019-03-28T03:59:05.846Z,13.73
2019-03-28T04:01:32.402Z,13.60
2019-03-28T04:03:58.930Z,13.00
2019-03-28T04:06:25.452Z,13.80
2019-03-28T04:08:51.887Z,14.93
2019-03-28T04:11:18.726Z,16.60
2019-03-28T04:13:45.261Z,14.97
2019-03-28T04:16:11.795Z,13.57
2019-03-28T04:18:38.447Z,14.30
2019-03-28T04:21:06.301Z,14.93
2019-03-28T04:23:32.968Z,15.10
2019-03-28T04:25:59.471Z,15.03
2019-03-28T04:28:32.047Z,15.60
2019-03-28T04:30:54.181Z,14.67
2019-03-28T04:33:20.613Z,15.77
2019-03-28T04:35:47.175Z,16.00
2019-03-28T04:38:13.708Z,15.73
2019-03-28T04:40:40.527Z,15.70
2019-03-28T04:43:07.369Z,16.23
2019-03-28T04:45:33.903Z,16.40
2019-03-28T04:48:01.508Z,15.73
2019-03-28T04:50:28.003Z,15.87
2019-03-28T04:52:55.763Z,17.13
2019-03-28T04:55:22.296Z,16.30
2019-03-28T04:57:48.747Z,17.07
2019-03-28T05:00:15.776Z,16.00
2019-03-28T05:02:42.209Z,15.60
2019-03-28T05:05:09.052Z,16.70
2019-03-28T05:07:35.587Z,16.10
2019-03-28T05:10:03.661Z,16.07
2019-03-28T05:12:30.603Z,16.97
2019-03-28T05:14:57.140Z,18.17
2019-03-28T05:17:23.984Z,18.00
2019-03-28T05:19:50.720Z,16.87
2019-03-28T05:22:17.256Z,18.27
2019-03-28T05:24:43.790Z,18.50
2019-03-28T05:27:10.325Z,16.77
2019-03-28T05:29:36.757Z,17.30
2019-03-28T05:32:03.293Z,18.17
2019-03-28T05:34:29.725Z,15.37
2019-03-28T05:36:56.263Z,15.97
2019-03-28T05:39:22.796Z,16.40
2019-03-28T05:41:49.332Z,15.40
2019-03-28T05:44:15.770Z,15.80
2019-03-28T05:46:42.607Z,16.23
2019-03-28T05:49:09.268Z,15.83
2019-03-28T05:51:35.783Z,16.43
2019-03-28T05:54:02.314Z,16.20
2019-03-28T05:56:28.748Z,16.43
2019-03-28T05:58:55.182Z,18.83
2019-03-28T06:01:21.720Z,18.10
2019-03-28T06:03:48.252Z,18.67
2019-03-28T06:06:14.707Z,17.13
2019-03-28T06:08:41.232Z,15.83
2019-03-28T06:11:07.762Z,17.67
2019-03-28T06:13:34.292Z,15.67
2019-03-28T06:16:00.830Z,15.47
2019-03-28T06:18:27.364Z,17.13
2019-03-28T06:20:53.899Z,16.70
2019-03-28T06:23:20.435Z,16.07
2019-03-28T06:25:49.758Z,15.43
2019-03-28T06:28:16.267Z,16.53
2019-03-28T06:30:43.108Z,16.90
2019-03-28T06:33:09.643Z,17.63
2019-03-28T06:35:36.076Z,18.50
2019-03-28T06:38:02.506Z,18.43
2019-03-28T06:40:29.145Z,18.03
2019-03-28T06:42:55.679Z,19.50
2019-03-28T06:45:22.336Z,18.30
2019-03-28T06:47:48.853Z,18.97
2019-03-28T06:50:15.490Z,19.70
2019-03-28T06:52:42.128Z,18.80
2019-03-28T06:55:09.070Z,18.03
2019-03-28T06:57:35.504Z,20.77
2019-03-28T07:00:04.789Z,18.20
2019-03-28T07:02:31.240Z,18.90
2019-03-28T07:04:57.773Z,17.97
2019-03-28T07:07:24.307Z,20.60
2019-03-28T07:09:50.842Z,20.17
2019-03-28T07:12:17.276Z,17.80
2019-03-28T07:14:43.707Z,18.23
2019-03-28T07:17:10.552Z,20.37
2019-03-28T07:19:37.188Z,20.77
2019-03-28T07:22:03.724Z,20.57
2019-03-28T07:24:30.260Z,20.10
2019-03-28T07:26:56.798Z,20.77
2019-03-28T07:29:23.334Z,19.87
2019-03-28T07:31:49.871Z,20.90
2019-03-28T07:34:16.327Z,20.63
2019-03-28T07:36:42.830Z,19.43
2019-03-28T07:39:09.369Z,20.60
2019-03-28T07:41:36.003Z,21.50
2019-03-28T07:44:02.539Z,20.20
2019-03-28T07:46:29.247Z,20.13
2019-03-28T07:48:56.017Z,21.17
2019-03-28T07:51:22.462Z,20.63
2019-03-28T07:53:48.986Z,21.27
2019-03-28T07:56:15.521Z,21.60
2019-03-28T07:58:44.234Z,22.50
2019-03-28T08:01:10.127Z,20.70
2019-03-28T08:03:36.564Z,23.00
2019-03-28T08:06:03.109Z,21.73
2019-03-28T08:08:38.731Z,20.40
2019-03-28T08:10:57.906Z,20.13
2019-03-28T08:13:24.442Z,21.00
2019-03-28T08:15:51.283Z,21.17
2019-03-28T08:18:17.823Z,22.33
2019-03-28T08:20:44.354Z,21.17
2019-03-28T08:23:10.890Z,21.23
2019-03-28T08:25:37.631Z,20.97
2019-03-28T08:28:04.166Z,20.73
2019-03-28T08:30:36.231Z,21.20
2019-03-28T08:33:04.608Z,19.30
2019-03-28T08:35:34.095Z,21.13
2019-03-28T08:38:00.753Z,20.10
2019-03-28T08:40:39.720Z,20.17
2019-03-28T08:43:05.187Z,21.37
2019-03-28T08:45:31.826Z,20.97
2019-03-28T08:47:58.360Z,21.97
2019-03-28T08:50:24.898Z,21.00
2019-03-28T08:52:51.429Z,19.23
2019-03-28T08:55:17.965Z,19.40
2019-03-28T08:57:44.499Z,18.70
2019-03-28T09:00:12.092Z,19.13
2019-03-28T09:02:38.596Z,20.03
2019-03-28T09:05:05.234Z,19.07
2019-03-28T09:07:31.765Z,19.07
2019-03-28T09:09:58.302Z,18.63
2019-03-28T09:12:24.840Z,19.57
2019-03-28T09:14:51.371Z,18.03
2019-03-28T09:17:17.908Z,16.90
2019-03-28T09:19:44.442Z,15.33
2019-03-28T09:22:10.980Z,16.60
2019-03-28T09:24:37.514Z,16.93
2019-03-28T09:27:04.048Z,18.20
2019-03-28T09:29:30.481Z,17.43
2019-03-28T09:31:57.119Z,17.87
2019-03-28T09:34:23.654Z,16.90
2019-03-28T09:36:50.598Z,15.57
2019-03-28T09:39:16.966Z,15.57
2019-03-28T09:41:43.464Z,16.00
2019-03-28T09:44:09.998Z,14.47
2019-03-28T09:46:36.637Z,15.13
2019-03-28T09:49:03.170Z,13.53
2019-03-28T09:51:29.706Z,15.10
2019-03-28T09:53:56.240Z,15.07
2019-03-28T09:56:22.783Z,12.70
2019-03-28T09:58:49.315Z,13.27
2019-03-28T10:01:16.153Z,12.30
2019-03-28T10:03:42.588Z,11.70
2019-03-28T10:06:09.019Z,13.47
2019-03-28T10:08:35.454Z,11.93
2019-03-28T10:11:01.885Z,11.03
2019-03-28T10:13:28.419Z,10.70
2019-03-28T10:15:57.331Z,10.93
2019-03-28T10:18:23.128Z,12.03
2019-03-28T10:20:49.668Z,11.77
2019-03-28T10:23:16.204Z,11.40
2019-03-28T10:25:42.733Z,11.00
2019-03-28T10:28:09.166Z,11.77
2019-03-28T10:30:37.885Z,11.30
2019-03-28T10:33:04.387Z,12.60
2019-03-28T10:35:31.086Z,12.40
2019-03-28T10:37:57.662Z,11.80
2019-03-28T10:40:24.196Z,11.63
2019-03-28T10:42:51.040Z,9.97
2019-03-28T10:45:17.984Z,9.90
2019-03-28T10:47:44.520Z,9.17
2019-03-28T10:50:11.157Z,9.93
2019-03-28T10:52:37.590Z,7.13
2019-03-28T10:55:04.534Z,8.00
2019-03-28T10:57:32.094Z,7.77
2019-03-28T10:59:58.936Z,7.13
2019-03-28T11:02:28.513Z,7.67
2019-03-28T11:04:53.645Z,7.10
2019-03-28T11:07:20.180Z,6.40
2019-03-28T11:09:46.715Z,6.30
2019-03-28T11:12:13.251Z,6.07
2019-03-28T11:14:39.785Z,6.30
2019-03-28T11:17:06.323Z,5.87
2019-03-28T11:19:32.856Z,6.00
2019-03-28T11:21:59.392Z,5.77
2019-03-28T11:24:25.929Z,5.77
2019-03-28T11:26:52.461Z,5.70
2019-03-28T11:29:18.996Z,6.50
2019-03-28T11:31:47.839Z,6.73
2019-03-28T11:34:33.524Z,6.97
2019-03-28T11:36:59.907Z,6.80
2019-03-28T11:39:26.233Z,6.57
2019-03-28T11:41:52.766Z,6.30
2019-03-28T11:44:19.301Z,6.40
2019-03-28T11:46:45.735Z,7.07
2019-03-28T11:49:12.280Z,7.93
2019-03-28T11:51:38.810Z,7.83
2019-03-28T11:54:05.340Z,8.47
2019-03-28T11:56:31.875Z,7.73
2019-03-28T11:58:58.308Z,7.83
2019-03-28T12:01:24.656Z,7.77
2019-03-28T12:03:51.173Z,7.27
2019-03-28T12:06:17.708Z,7.80
2019-03-28T12:08:44.245Z,8.63
2019-03-28T12:11:10.782Z,7.10
2019-03-28T12:13:44.693Z,7.13
2019-03-28T12:16:05.487Z,8.23
2019-03-28T12:18:32.024Z,7.47
2019-03-28T12:20:58.456Z,7.90
2019-03-28T12:23:24.993Z,7.50
2019-03-28T12:25:51.423Z,7.23
2019-03-28T12:28:17.859Z,7.53
2019-03-28T12:30:44.321Z,6.43
2019-03-28T12:33:10.927Z,6.57
2019-03-28T12:35:37.463Z,5.20
2019-03-28T12:38:03.896Z,3.50
2019-03-28T12:40:30.736Z,4.17
2019-03-28T12:42:57.169Z,4.50
2019-03-28T12:45:23.703Z,3.80
2019-03-28T12:47:50.136Z,4.97
2019-03-28T12:50:36.624Z,5.00
2019-03-28T12:53:03.177Z,4.83
2019-03-28T12:55:29.713Z,5.27
2019-03-28T12:57:56.756Z,5.33
2019-03-28T13:00:33.647Z,5.03
2019-03-28T13:03:00.067Z,5.07
2019-03-28T13:05:26.499Z,4.47
2019-03-28T13:07:52.932Z,5.07
2019-03-28T13:10:19.572Z,5.07
2019-03-28T13:12:46.105Z,4.83
2019-03-28T13:15:13.041Z,5.13
2019-03-28T13:17:40.099Z,5.50
2019-03-28T13:20:08.782Z,5.90
2019-03-28T13:22:35.522Z,5.57
2019-03-28T13:25:02.263Z,5.10
2019-03-28T13:27:28.997Z,6.17
2019-03-28T13:29:55.333Z,5.60
2019-03-28T13:32:21.658Z,5.67
2019-03-28T13:34:47.868Z,6.00
2019-03-28T13:37:14.216Z,6.13
2019-03-28T13:39:40.547Z,6.27
2019-03-28T13:42:06.876Z,6.77
2019-03-28T13:44:33.315Z,6.57
2019-03-28T13:46:59.640Z,6.43
2019-03-28T13:49:26.073Z,6.40
2019-03-28T13:51:52.287Z,6.97
2019-03-28T13:54:19.588Z,6.93
2019-03-28T13:56:46.393Z,6.83
2019-03-28T13:59:12.598Z,7.17
2019-03-28T14:01:39.054Z,7.70
2019-03-28T14:04:05.386Z,8.23
2019-03-28T14:06:31.717Z,6.63
2019-03-28T14:08:58.048Z,6.87
2019-03-28T14:11:24.377Z,7.50
2019-03-28T14:13:50.615Z,7.27
2019-03-28T14:16:17.038Z,6.33
2019-03-28T14:18:43.368Z,7.17
2019-03-28T14:21:09.697Z,6.57
2019-03-28T14:23:36.027Z,6.80
2019-03-28T14:26:02.564Z,6.67
2019-03-28T14:28:28.896Z,6.10
2019-03-28T14:30:55.177Z,6.00
2019-03-28T14:33:21.554Z,6.07
2019-03-28T14:35:48.834Z,6.83
2019-03-28T14:38:15.158Z,6.10
2019-03-28T14:40:41.452Z,5.80
2019-03-28T14:43:10.593Z,5.80
2019-03-28T14:45:35.972Z,5.33
2019-03-28T14:48:02.509Z,5.97
2019-03-28T14:50:36.619Z,5.77
2019-03-28T14:53:03.675Z,5.13
2019-03-28T14:55:30.710Z,5.37
2019-03-28T14:57:57.042Z,5.53
2019-03-28T15:00:47.665Z,5.37
2019-03-28T15:03:25.566Z,5.37
2019-03-28T15:05:43.054Z,5.73
2019-03-28T15:08:09.501Z,6.10
2019-03-28T15:10:35.747Z,5.70
2019-03-28T15:13:02.062Z,5.03
2019-03-28T15:15:28.354Z,4.87
2019-03-28T15:17:54.742Z,5.73
2019-03-28T15:20:21.149Z,5.07
2019-03-28T15:22:47.480Z,5.07
2019-03-28T15:25:13.773Z,6.07
2019-03-28T15:27:40.143Z,7.10
2019-03-28T15:30:06.890Z,7.50
2019-03-28T15:32:33.315Z,6.60
2019-03-28T15:35:00.601Z,6.90
2019-03-28T15:37:26.998Z,6.57
2019-03-28T15:39:53.258Z,6.97
2019-03-28T15:42:19.555Z,7.03
2019-03-28T15:44:45.886Z,6.90
2019-03-28T15:47:12.216Z,6.53
2019-03-28T15:49:38.469Z,6.43
2019-03-28T15:52:05.230Z,6.40
2019-03-28T15:54:31.828Z,7.03
2019-03-28T15:56:58.682Z,6.60
2019-03-28T15:59:25.217Z,6.87
2019-03-28T16:01:51.529Z,7.20
2019-03-28T16:04:17.859Z,6.80
2019-03-28T16:06:44.159Z,6.77
2019-03-28T16:09:10.520Z,6.77
2019-03-28T16:11:36.852Z,6.87
2019-03-28T16:14:03.284Z,7.00
2019-03-28T16:16:29.718Z,6.83
2019-03-28T16:18:56.049Z,6.87
2019-03-28T16:21:22.684Z,7.07
2019-03-28T16:23:49.026Z,7.17
2019-03-28T16:26:15.350Z,6.70
2019-03-28T16:28:41.690Z,7.13
2019-03-28T16:31:08.008Z,7.30
2019-03-28T16:33:34.304Z,6.50
2019-03-28T16:36:00.662Z,6.23
2019-03-28T16:38:26.995Z,7.27
2019-03-28T16:40:53.354Z,6.50
2019-03-28T16:43:19.761Z,7.70
2019-03-28T16:45:46.076Z,7.53
2019-03-28T16:48:12.746Z,6.70
2019-03-28T16:50:39.165Z,7.60
2019-03-28T16:53:05.591Z,6.97
2019-03-28T16:55:31.891Z,6.87
2019-03-28T16:57:58.258Z,7.20
2019-03-28T17:00:44.389Z,7.07
2019-03-28T17:03:10.784Z,7.00
2019-03-28T17:05:37.894Z,6.97
2019-03-28T17:08:04.574Z,6.90
2019-03-28T17:10:34.685Z,6.77
2019-03-28T17:13:01.131Z,7.07
2019-03-28T17:15:27.449Z,7.50
2019-03-28T17:17:53.778Z,7.47
2019-03-28T17:20:20.107Z,6.77
2019-03-28T17:22:46.329Z,7.20
2019-03-28T17:25:12.633Z,8.17
2019-03-28T17:27:38.934Z,7.70
2019-03-28T17:30:07.309Z,8.13
2019-03-28T17:32:36.579Z,7.33
2019-03-28T17:35:02.371Z,8.13
2019-03-28T17:37:29.540Z,8.30
2019-03-28T17:39:55.870Z,8.37
2019-03-28T17:42:22.071Z,7.67
2019-03-28T17:44:48.533Z,8.60
2019-03-28T17:47:14.967Z,7.80
2019-03-28T17:49:41.614Z,7.60
2019-03-28T17:52:11.022Z,9.23
2019-03-28T17:54:37.794Z,8.03
2019-03-28T17:57:04.277Z,7.97
2019-03-28T17:59:30.608Z,8.60
2019-03-28T18:01:57.063Z,8.83
2019-03-28T18:04:23.803Z,8.60
2019-03-28T18:06:50.226Z,9.60
2019-03-28T18:09:16.755Z,9.07
2019-03-28T18:11:43.248Z,9.73
2019-03-28T18:14:09.614Z,9.90
2019-03-28T18:16:35.953Z,10.10
2019-03-28T18:19:02.319Z,10.40
2019-03-28T18:21:28.599Z,9.93
2019-03-28T18:23:54.935Z,10.73
2019-03-28T18:26:21.367Z,9.50
2019-03-28T18:28:47.598Z,8.67
2019-03-28T18:31:14.030Z,8.50
2019-03-28T18:33:40.464Z,8.43
2019-03-28T18:36:06.809Z,8.93
2019-03-28T18:38:33.126Z,10.83
2019-03-28T18:40:59.453Z,9.80
2019-03-28T18:43:25.670Z,8.13
2019-03-28T18:45:52.014Z,8.30
2019-03-28T18:48:29.098Z,7.50
2019-03-28T18:50:47.326Z,8.40
2019-03-28T18:53:13.664Z,8.37
2019-03-28T18:55:40.099Z,7.37
2019-03-28T18:58:06.529Z,7.73
2019-03-28T19:00:32.949Z,7.97
2019-03-28T19:03:00.230Z,8.50
2019-03-28T19:05:26.557Z,8.23
2019-03-28T19:07:53.011Z,7.97
2019-03-28T19:10:19.510Z,8.10
2019-03-28T19:12:45.944Z,9.77
2019-03-28T19:15:12.540Z,8.73
2019-03-28T19:17:38.911Z,8.70
2019-03-28T19:20:07.401Z,8.47
2019-03-28T19:22:33.827Z,8.50
2019-03-28T19:25:00.357Z,8.77
2019-03-28T19:27:30.037Z,8.20
2019-03-28T19:29:55.069Z,13.70
2019-03-28T19:32:21.445Z,13.60
2019-03-28T19:34:49.061Z,13.90
2019-03-28T19:37:15.887Z,12.27
2019-03-28T19:39:42.248Z,14.97
2019-03-28T19:42:10.612Z,17.43
2019-03-28T19:44:37.150Z,18.03
2019-03-28T19:47:03.840Z,17.13
2019-03-28T19:49:30.421Z,14.93
2019-03-28T19:51:56.817Z,14.10
2019-03-28T19:54:23.179Z,12.07
2019-03-28T19:56:49.525Z,11.03
2019-03-28T19:59:15.846Z,9.80
2019-03-28T20:01:42.175Z,9.60
2019-03-28T20:04:08.506Z,9.33
2019-03-28T20:06:34.942Z,8.73
2019-03-28T20:09:15.401Z,9.33
2019-03-28T20:11:29.980Z,8.97
2019-03-28T20:13:56.390Z,9.83
2019-03-28T20:16:22.706Z,9.17
2019-03-28T20:18:49.119Z,9.47
2019-03-28T20:21:15.487Z,9.07
2019-03-28T20:23:41.809Z,9.67
2019-03-28T20:26:08.142Z,9.43
2019-03-28T20:28:34.591Z,9.53
2019-03-28T20:31:00.932Z,8.53
2019-03-28T20:33:27.336Z,9.10
2019-03-28T20:36:11.648Z,8.63
2019-03-28T20:38:21.740Z,9.07
2019-03-28T20:40:48.281Z,9.33
2019-03-28T20:43:14.911Z,9.13
2019-03-28T20:45:41.462Z,8.77
2019-03-28T20:48:07.902Z,8.47
2019-03-28T20:50:34.457Z,8.13
2019-03-28T20:53:00.726Z,9.00
2019-03-28T20:55:27.018Z,9.30
2019-03-28T20:57:53.448Z,8.30
2019-03-28T21:00:39.121Z,8.33
2019-03-28T21:03:05.727Z,9.40
2019-03-28T21:05:32.042Z,9.00
2019-03-28T21:07:58.441Z,9.70
2019-03-28T21:12:52.200Z,9.30
2019-03-28T21:15:19.715Z,9.23
2019-03-28T21:17:46.102Z,9.77
2019-03-28T21:20:12.458Z,9.90
2019-03-28T21:22:38.864Z,9.90
2019-03-28T21:25:06.028Z,10.47
2019-03-28T21:27:33.059Z,11.07
2019-03-28T21:29:59.729Z,10.00
2019-03-28T21:32:26.131Z,10.13
2019-03-28T21:34:54.865Z,10.33
2019-03-28T21:37:20.634Z,11.13
2019-03-28T21:39:46.967Z,9.97
2019-03-28T21:42:13.270Z,9.80
2019-03-28T21:44:39.632Z,11.07
2019-03-28T21:47:05.868Z,10.03
2019-03-28T21:49:32.198Z,10.63
2019-03-28T21:51:58.616Z,8.87
2019-03-28T21:54:26.586Z,10.23
2019-03-28T21:56:53.022Z,10.37
2019-03-28T21:59:19.453Z,10.13
2019-03-28T22:01:45.783Z,9.63
2019-03-28T22:04:12.112Z,9.70
2019-03-28T22:06:43.155Z,10.97
2019-03-28T22:09:06.723Z,9.20
2019-03-28T22:11:32.950Z,9.63
2019-03-28T22:13:59.277Z,10.00
2019-03-28T22:16:25.523Z,9.93
2019-03-28T22:18:51.936Z,11.03
2019-03-28T22:21:18.266Z,11.33
2019-03-28T22:23:44.568Z,9.80
2019-03-28T22:26:11.158Z,10.07
2019-03-28T22:28:38.117Z,11.90
2019-03-28T22:31:04.976Z,10.60
2019-03-28T22:33:31.456Z,10.37
2019-03-28T22:35:57.814Z,9.50
2019-03-28T22:38:24.129Z,10.47
2019-03-28T22:40:50.746Z,9.80
2019-03-28T22:43:17.051Z,9.70
2019-03-28T22:45:43.905Z,9.70
2019-03-28T22:48:11.457Z,9.37
2019-03-28T22:50:38.701Z,10.30
2019-03-28T22:53:05.385Z,10.40
2019-03-28T22:55:31.891Z,8.83
2019-03-28T22:57:58.574Z,8.50
2019-03-28T23:00:44.897Z,8.93
2019-03-28T23:03:12.406Z,8.77
2019-03-28T23:05:38.736Z,9.67
2019-03-28T23:08:05.065Z,9.43
2019-03-28T23:10:31.395Z,9.73
2019-03-28T23:12:57.828Z,10.40
2019-03-28T23:15:25.803Z,9.87
2019-03-28T23:17:52.128Z,9.23
2019-03-28T23:20:18.462Z,10.10
2019-03-28T23:22:45.120Z,10.73
2019-03-28T23:25:11.528Z,11.33
2019-03-28T23:27:37.813Z,10.57
2019-03-28T23:30:06.625Z,10.90
2019-03-28T23:32:32.982Z,10.50
2019-03-28T23:34:59.308Z,10.80
2019-03-28T23:37:26.805Z,10.27
2019-03-28T23:39:53.413Z,11.30
2019-03-28T23:42:19.731Z,11.87
2019-03-28T23:44:46.063Z,10.73
2019-03-28T23:47:12.726Z,11.63
2019-03-28T23:49:40.610Z,11.00
2019-03-28T23:52:07.206Z,10.73
2019-03-28T23:54:33.540Z,11.57
2019-03-28T23:56:59.813Z,11.60
2019-03-28T23:59:26.194Z,12.50
